createdAt,value
2023-11-04T00:01:39.660Z,2.15
2023-11-04T00:04:27.041Z,2.08
2023-11-04T00:07:14.419Z,2.10
2023-11-04T00:10:01.767Z,1.90
2023-11-04T00:12:49.006Z,1.98
2023-11-04T00:15:36.656Z,2.10
2023-11-04T00:18:23.980Z,2.45
2023-11-04T00:21:11.550Z,2.25
2023-11-04T00:23:58.788Z,2.15
2023-11-04T00:26:46.041Z,2.40
2023-11-04T00:29:33.236Z,2.10
2023-11-04T00:32:20.972Z,2.67
2023-11-04T00:35:08.685Z,2.17
2023-11-04T00:37:55.877Z,2.55
2023-11-04T00:40:43.332Z,2.58
2023-11-04T00:43:31.885Z,2.63
2023-11-04T00:46:19.105Z,2.78
2023-11-04T00:49:07.658Z,2.80
2023-11-04T00:51:55.043Z,2.70
2023-11-04T00:54:42.495Z,2.60
2023-11-04T00:57:29.818Z,2.80
2023-11-04T01:00:24.347Z,2.70
2023-11-04T01:03:11.600Z,3.10
2023-11-04T01:05:58.817Z,2.90
2023-11-04T01:08:46.083Z,2.83
2023-11-04T01:11:33.322Z,2.75
2023-11-04T01:14:20.507Z,2.70
2023-11-04T01:17:07.986Z,2.60
2023-11-04T01:19:55.152Z,3.08
2023-11-04T01:22:42.369Z,2.65
2023-11-04T01:25:30.693Z,2.75
2023-11-04T01:28:17.953Z,3.17
2023-11-04T01:31:05.414Z,2.80
2023-11-04T01:33:53.811Z,2.85
2023-11-04T01:36:41.305Z,2.83
2023-11-04T01:39:28.674Z,2.80
2023-11-04T01:42:16.024Z,2.80
2023-11-04T01:45:03.498Z,2.63
2023-11-04T01:47:51.385Z,2.65
2023-11-04T01:50:38.702Z,2.50
2023-11-04T01:53:25.917Z,2.97
2023-11-04T01:56:17.052Z,2.55
2023-11-04T01:59:04.870Z,3.00
2023-11-04T02:01:52.445Z,2.58
2023-11-04T02:04:40.758Z,2.95
2023-11-04T02:07:28.024Z,3.15
2023-11-04T02:10:15.334Z,2.90
2023-11-04T02:13:03.294Z,2.95
2023-11-04T02:15:50.492Z,3.13
2023-11-04T02:18:37.806Z,3.38
2023-11-04T02:21:25.149Z,2.95
2023-11-04T02:24:12.753Z,2.95
2023-11-04T02:26:59.931Z,3.15
2023-11-04T02:29:49.944Z,3.10
2023-11-04T02:32:37.305Z,3.47
2023-11-04T02:35:24.742Z,2.90
2023-11-04T02:38:11.968Z,3.05
2023-11-04T02:40:59.193Z,3.22
2023-11-04T02:43:46.467Z,3.28
2023-11-04T02:46:33.708Z,3.08
2023-11-04T02:49:21.570Z,3.25
2023-11-04T02:52:10.931Z,3.17
2023-11-04T02:54:58.481Z,2.92
2023-11-04T02:57:45.901Z,3.08
2023-11-04T03:00:33.197Z,3.40
2023-11-04T03:03:20.575Z,3.08
2023-11-04T03:06:08.065Z,3.42
2023-11-04T03:08:58.241Z,3.10
2023-11-04T03:11:45.433Z,3.30
2023-11-04T03:14:32.643Z,3.50
2023-11-04T03:17:19.886Z,3.78
2023-11-04T03:20:08.371Z,2.97
2023-11-04T03:22:55.656Z,2.80
2023-11-04T03:25:42.886Z,3.40
2023-11-04T03:28:30.093Z,3.75
2023-11-04T03:31:17.277Z,3.50
2023-11-04T03:34:04.751Z,3.47
2023-11-04T03:36:52.635Z,3.83
2023-11-04T03:39:39.882Z,3.80
2023-11-04T03:42:27.154Z,3.17
2023-11-04T03:45:14.398Z,3.45
2023-11-04T03:48:01.768Z,3.83
2023-11-04T03:50:49.035Z,3.30
2023-11-04T03:53:36.451Z,3.08
2023-11-04T03:56:24.017Z,3.00
2023-11-04T03:59:11.234Z,3.60
2023-11-04T04:01:58.413Z,3.50
2023-11-04T04:04:45.660Z,3.30
2023-11-04T04:07:32.876Z,3.15
2023-11-04T04:10:20.118Z,3.20
2023-11-04T04:13:07.369Z,3.15
2023-11-04T04:15:54.675Z,3.42
2023-11-04T04:18:41.966Z,2.90
2023-11-04T04:21:29.306Z,2.78
2023-11-04T04:24:16.521Z,2.88
2023-11-04T04:27:05.882Z,2.88
2023-11-04T04:29:53.063Z,3.05
2023-11-04T04:32:40.379Z,2.72
2023-11-04T04:35:27.630Z,2.78
2023-11-04T04:38:14.844Z,3.45
2023-11-04T04:41:02.068Z,3.05
2023-11-04T04:43:49.264Z,2.95
2023-11-04T04:46:42.288Z,2.70
2023-11-04T04:49:29.601Z,2.90
2023-11-04T04:52:19.814Z,2.63
2023-11-04T04:55:07.438Z,2.63
2023-11-04T04:57:54.626Z,2.60
2023-11-04T05:00:41.893Z,2.65
2023-11-04T05:03:29.783Z,2.97
2023-11-04T05:06:17.272Z,2.33
2023-11-04T05:09:06.104Z,2.92
2023-11-04T05:11:53.801Z,2.42
2023-11-04T05:14:41.013Z,2.80
2023-11-04T05:17:28.212Z,2.80
2023-11-04T05:20:16.213Z,2.97
2023-11-04T05:23:03.483Z,2.33
2023-11-04T05:25:51.189Z,2.80
2023-11-04T05:28:38.369Z,2.50
2023-11-04T05:31:25.548Z,2.47
2023-11-04T05:34:13.828Z,2.60
2023-11-04T05:37:01.202Z,2.33
2023-11-04T05:39:48.506Z,2.40
2023-11-04T05:42:35.896Z,2.65
2023-11-04T05:45:23.198Z,2.53
2023-11-04T05:48:10.547Z,2.25
2023-11-04T05:50:57.789Z,2.30
2023-11-04T05:53:45.055Z,2.65
2023-11-04T05:56:32.239Z,2.70
2023-11-04T05:59:19.495Z,2.40
2023-11-04T06:02:06.748Z,2.90
2023-11-04T06:04:54.053Z,2.30
2023-11-04T06:07:41.495Z,2.08
2023-11-04T06:10:28.706Z,2.75
2023-11-04T06:13:15.933Z,2.40
2023-11-04T06:16:03.780Z,2.28
2023-11-04T06:18:51.050Z,2.50
2023-11-04T06:21:38.314Z,2.22
2023-11-04T06:24:25.564Z,2.40
2023-11-04T06:27:12.930Z,2.60
2023-11-04T06:30:00.145Z,2.30
2023-11-04T06:32:47.381Z,2.22
2023-11-04T06:35:35.119Z,2.53
2023-11-04T06:38:22.661Z,2.25
2023-11-04T06:41:17.159Z,2.50
2023-11-04T06:44:04.693Z,2.47
2023-11-04T06:46:53.461Z,2.50
2023-11-04T06:49:40.714Z,2.30
2023-11-04T06:52:27.947Z,2.45
2023-11-04T06:55:15.211Z,2.50
2023-11-04T06:58:02.460Z,2.75
2023-11-04T07:00:50.012Z,2.45
2023-11-04T07:03:37.377Z,2.40
2023-11-04T07:06:25.638Z,3.20
2023-11-04T07:09:13.671Z,2.30
2023-11-04T07:12:01.081Z,2.20
2023-11-04T07:14:48.766Z,2.20
2023-11-04T07:17:36.344Z,2.40
2023-11-04T07:20:25.422Z,2.75
2023-11-04T07:23:14.279Z,2.53
2023-11-04T07:26:02.291Z,2.50
2023-11-04T07:28:51.274Z,2.35
2023-11-04T07:31:38.460Z,2.78
2023-11-04T07:34:32.110Z,3.13
2023-11-04T07:37:19.567Z,2.22
2023-11-04T07:40:07.671Z,2.63
2023-11-04T07:42:54.983Z,2.15
2023-11-04T07:45:44.751Z,2.45
2023-11-04T07:48:32.610Z,2.80
2023-11-04T07:51:19.874Z,2.20
2023-11-04T07:54:07.066Z,2.10
2023-11-04T07:56:54.290Z,2.70
2023-11-04T07:59:41.484Z,2.65
2023-11-04T08:02:28.743Z,2.10
2023-11-04T08:05:16.120Z,2.38
2023-11-04T08:08:04.697Z,1.92
2023-11-04T08:10:52.055Z,2.13
2023-11-04T08:13:39.841Z,1.90
2023-11-04T08:16:27.090Z,2.17
2023-11-04T08:19:14.367Z,2.28
2023-11-04T08:22:02.040Z,2.13
2023-11-04T08:24:49.441Z,2.22
2023-11-04T08:27:37.112Z,2.40
2023-11-04T08:30:27.034Z,1.92
2023-11-04T08:33:14.321Z,2.17
2023-11-04T08:36:01.536Z,1.77
2023-11-04T08:38:48.758Z,2.42
2023-11-04T08:41:36.070Z,1.95
2023-11-04T08:44:23.644Z,1.95
2023-11-04T08:47:10.819Z,2.35
2023-11-04T08:49:58.181Z,2.30
2023-11-04T08:52:45.455Z,1.80
2023-11-04T08:55:32.826Z,1.98
2023-11-04T08:58:19.989Z,1.77
2023-11-04T09:01:08.132Z,1.85
2023-11-04T09:04:03.232Z,2.13
2023-11-04T09:06:53.127Z,2.25
2023-11-04T09:09:40.705Z,2.00
2023-11-04T09:12:27.887Z,1.92
2023-11-04T09:15:15.651Z,1.60
2023-11-04T09:18:05.554Z,2.20
2023-11-04T09:20:53.138Z,2.00
2023-11-04T09:23:41.685Z,1.83
2023-11-04T09:26:30.210Z,1.63
2023-11-04T09:29:17.429Z,2.15
2023-11-04T09:32:05.105Z,1.90
2023-11-04T09:34:52.347Z,1.92
2023-11-04T09:37:41.987Z,2.40
2023-11-04T09:40:29.657Z,2.20
2023-11-04T09:43:18.474Z,2.05
2023-11-04T09:46:08.776Z,2.20
2023-11-04T09:48:56.215Z,2.05
2023-11-04T09:51:44.333Z,1.55
2023-11-04T09:54:32.756Z,2.10
2023-11-04T09:57:20.354Z,2.55
2023-11-04T10:00:10.595Z,2.10
2023-11-04T10:02:58.921Z,1.85
2023-11-04T10:05:46.466Z,2.28
2023-11-04T10:08:34.421Z,2.00
2023-11-04T10:11:21.791Z,2.20
2023-11-04T10:14:09.923Z,2.60
2023-11-04T10:16:57.434Z,2.50
2023-11-04T10:19:44.812Z,2.33
2023-11-04T10:22:32.389Z,2.35
2023-11-04T10:25:20.690Z,2.35
2023-11-04T10:28:07.985Z,1.92
2023-11-04T10:31:07.031Z,2.30
2023-11-04T10:33:59.331Z,2.00
2023-11-04T10:36:50.268Z,1.88
2023-11-04T10:39:38.895Z,1.75
2023-11-04T10:42:31.289Z,2.90
2023-11-04T10:45:27.553Z,2.17
2023-11-04T10:48:23.252Z,2.40
2023-11-04T10:51:30.786Z,2.17
2023-11-04T10:54:23.899Z,1.83
2023-11-04T10:57:31.934Z,1.90
2023-11-04T11:00:24.315Z,3.05
2023-11-04T11:03:12.439Z,2.28
2023-11-04T11:06:03.136Z,2.60
2023-11-04T11:08:51.425Z,2.53
2023-11-04T11:12:03.595Z,3.40
2023-11-04T11:14:51.554Z,2.83
2023-11-04T11:17:38.916Z,3.20
2023-11-04T11:20:34.941Z,3.83
2023-11-04T11:23:29.798Z,2.10
2023-11-04T11:26:18.594Z,2.33
2023-11-04T11:29:06.002Z,1.52
2023-11-04T11:32:07.215Z,1.30
2023-11-04T11:34:56.569Z,1.35
2023-11-04T11:37:51.041Z,1.17
2023-11-04T11:40:47.718Z,1.33
2023-11-04T11:43:39.149Z,1.77
2023-11-04T11:46:28.265Z,1.23
2023-11-04T11:49:15.526Z,1.13
2023-11-04T11:52:03.750Z,1.73
2023-11-04T11:54:51.938Z,1.00
2023-11-04T11:57:39.230Z,1.50
2023-11-04T12:00:26.444Z,1.90
2023-11-04T12:03:13.748Z,1.40
2023-11-04T12:06:01.226Z,1.15
2023-11-04T12:08:49.076Z,1.15
2023-11-04T12:11:37.048Z,0.88
2023-11-04T12:14:25.701Z,0.93
2023-11-04T12:17:13.230Z,0.93
2023-11-04T12:20:00.552Z,1.13
2023-11-04T12:22:47.984Z,0.93
2023-11-04T12:25:37.240Z,1.15
2023-11-04T12:28:26.316Z,0.95
2023-11-04T12:31:16.749Z,1.60
2023-11-04T12:34:04.799Z,1.20
2023-11-04T12:36:52.628Z,1.10
2023-11-04T12:39:40.233Z,0.73
2023-11-04T12:42:28.078Z,0.77
2023-11-04T12:45:17.273Z,0.85
2023-11-04T12:48:04.660Z,1.20
2023-11-04T12:50:54.243Z,1.02
2023-11-04T12:53:41.476Z,0.98
2023-11-04T12:56:28.704Z,1.08
2023-11-04T12:59:16.163Z,1.17
2023-11-04T13:02:03.931Z,0.70
2023-11-04T13:04:51.605Z,0.70
2023-11-04T13:07:38.969Z,0.80
2023-11-04T13:10:27.079Z,0.95
2023-11-04T13:13:14.353Z,0.70
2023-11-04T13:16:01.610Z,0.70
2023-11-04T13:18:48.887Z,0.80
2023-11-04T13:21:36.202Z,0.90
2023-11-04T13:24:23.459Z,0.80
2023-11-04T13:27:10.679Z,0.90
2023-11-04T13:29:58.268Z,1.08
2023-11-04T13:32:45.682Z,1.10
2023-11-04T13:35:34.268Z,0.70
2023-11-04T13:38:23.476Z,1.13
2023-11-04T13:41:10.740Z,0.95
2023-11-04T13:43:57.939Z,0.70
2023-11-04T13:46:47.287Z,0.70
2023-11-04T13:49:34.622Z,1.20
2023-11-04T13:52:21.923Z,1.20
2023-11-04T13:55:10.321Z,1.30
2023-11-04T13:57:57.648Z,0.98
2023-11-04T14:00:44.949Z,0.80
2023-11-04T14:03:32.543Z,1.25
2023-11-04T14:06:19.912Z,1.20
2023-11-04T14:09:07.194Z,1.00
2023-11-04T14:11:56.748Z,1.20
2023-11-04T14:14:43.934Z,1.10
2023-11-04T14:17:31.242Z,1.20
2023-11-04T14:20:18.603Z,1.33
2023-11-04T14:23:05.819Z,1.40
2023-11-04T14:25:53.016Z,1.50
2023-11-04T14:28:40.262Z,2.00
2023-11-04T14:31:27.838Z,1.13
2023-11-04T14:34:15.062Z,1.10
2023-11-04T14:37:02.341Z,1.40
2023-11-04T14:39:49.664Z,1.33
2023-11-04T14:42:36.863Z,1.20
2023-11-04T14:45:26.370Z,1.10
2023-11-04T14:48:14.909Z,1.80
2023-11-04T14:51:02.170Z,1.10
2023-11-04T14:53:49.387Z,1.70
2023-11-04T14:56:39.118Z,1.10
2023-11-04T14:59:26.277Z,1.15
2023-11-04T15:02:13.471Z,1.20
2023-11-04T15:05:00.684Z,1.17
2023-11-04T15:07:47.987Z,1.13
2023-11-04T15:10:35.470Z,1.55
2023-11-04T15:13:22.741Z,1.20
2023-11-04T15:16:10.644Z,1.50
2023-11-04T15:18:59.333Z,1.50
2023-11-04T15:21:46.640Z,1.10
2023-11-04T15:24:33.922Z,1.40
2023-11-04T15:27:21.140Z,1.50
2023-11-04T15:30:10.306Z,1.40
2023-11-04T15:32:57.688Z,1.70
2023-11-04T15:35:45.055Z,1.60
2023-11-04T15:38:32.518Z,1.92
2023-11-04T15:41:19.728Z,1.70
2023-11-04T15:44:07.134Z,1.90
2023-11-04T15:46:54.437Z,2.05
2023-11-04T15:49:41.690Z,1.65
2023-11-04T15:52:30.531Z,2.40
2023-11-04T15:55:17.940Z,2.10
2023-11-04T15:58:05.235Z,2.20
2023-11-04T16:00:53.450Z,2.10
2023-11-04T16:03:42.421Z,1.75
2023-11-04T16:06:30.887Z,1.95
2023-11-04T16:09:18.454Z,1.88
2023-11-04T16:12:07.529Z,1.50
2023-11-04T16:14:55.590Z,1.80
2023-11-04T16:17:42.956Z,1.70
2023-11-04T16:20:30.281Z,1.58
2023-11-04T16:23:17.594Z,2.03
2023-11-04T16:26:05.168Z,2.13
2023-11-04T16:28:52.496Z,2.08
2023-11-04T16:31:39.762Z,2.53
2023-11-04T16:34:26.994Z,2.60
2023-11-04T16:37:14.313Z,2.45
2023-11-04T16:40:02.139Z,3.13
2023-11-04T16:42:50.021Z,2.67
2023-11-04T16:45:37.359Z,2.45
2023-11-04T16:48:24.648Z,2.75
2023-11-04T16:51:11.895Z,2.63
2023-11-04T16:53:59.139Z,2.92
2023-11-04T16:56:51.018Z,3.00
2023-11-04T16:59:38.234Z,2.60
2023-11-04T17:02:26.413Z,2.40
2023-11-04T17:05:13.869Z,2.83
2023-11-04T17:08:01.101Z,2.95
2023-11-04T17:10:48.569Z,2.83
2023-11-04T17:13:35.841Z,3.10
2023-11-04T17:16:23.150Z,2.85
2023-11-04T17:19:10.981Z,3.28
2023-11-04T17:21:58.432Z,3.92
2023-11-04T17:24:45.692Z,2.85
2023-11-04T17:27:32.959Z,3.38
2023-11-04T17:30:20.281Z,4.47
2023-11-04T17:33:07.537Z,3.33
2023-11-04T17:35:54.857Z,3.35
2023-11-04T17:38:42.117Z,3.50
2023-11-04T17:41:29.316Z,3.85
2023-11-04T17:44:16.545Z,2.90
2023-11-04T17:47:03.930Z,2.78
2023-11-04T17:49:51.140Z,3.22
2023-11-04T17:52:40.003Z,2.85
2023-11-04T17:55:27.341Z,2.80
2023-11-04T17:58:14.782Z,2.70
2023-11-04T18:01:02.056Z,3.20
2023-11-04T18:03:49.364Z,3.05
2023-11-04T18:06:36.912Z,3.15
2023-11-04T18:09:25.944Z,3.20
2023-11-04T18:12:13.219Z,3.25
2023-11-04T18:15:00.413Z,3.10
2023-11-04T18:17:47.720Z,3.30
2023-11-04T18:20:34.967Z,3.47
2023-11-04T18:23:22.168Z,2.90
2023-11-04T18:26:09.453Z,2.55
2023-11-04T18:28:56.717Z,2.83
2023-11-04T18:31:43.923Z,2.47
2023-11-04T18:34:31.332Z,2.63
2023-11-04T18:37:18.545Z,2.35
2023-11-04T18:40:06.630Z,2.65
2023-11-04T18:42:54.228Z,2.67
2023-11-04T18:45:46.643Z,2.72
2023-11-04T18:48:37.646Z,2.20
2023-11-04T18:51:25.101Z,2.47
2023-11-04T18:54:12.362Z,2.70
2023-11-04T18:56:59.517Z,2.33
2023-11-04T18:59:47.232Z,2.28
2023-11-04T19:02:34.452Z,2.45
2023-11-04T19:05:21.748Z,2.40
2023-11-04T19:08:08.988Z,2.92
2023-11-04T19:10:56.919Z,2.90
2023-11-04T19:13:44.086Z,4.70
2023-11-04T19:16:31.880Z,6.38
2023-11-04T19:19:19.104Z,6.35
2023-11-04T19:22:06.496Z,5.25
2023-11-04T19:24:53.861Z,4.03
2023-11-04T19:27:41.865Z,4.28
2023-11-04T19:30:30.111Z,3.40
2023-11-04T19:33:20.346Z,3.67
2023-11-04T19:36:08.430Z,3.70
2023-11-04T19:38:55.629Z,4.20
2023-11-04T19:41:43.426Z,3.85
2023-11-04T19:44:30.675Z,4.90
2023-11-04T19:47:18.791Z,3.75
2023-11-04T19:50:07.628Z,4.90
2023-11-04T19:52:55.422Z,3.65
2023-11-04T19:55:42.572Z,4.20
2023-11-04T19:58:29.745Z,3.13
2023-11-04T20:01:17.034Z,3.50
2023-11-04T20:04:04.522Z,3.67
2023-11-04T20:06:52.339Z,3.55
2023-11-04T20:09:39.557Z,4.47
2023-11-04T20:12:26.863Z,3.10
2023-11-04T20:15:14.121Z,6.15
2023-11-04T20:18:02.426Z,7.75
2023-11-04T20:20:50.192Z,5.70
2023-11-04T20:23:37.476Z,4.13
2023-11-04T20:26:26.642Z,3.63
2023-11-04T20:29:13.978Z,3.42
2023-11-04T20:32:01.162Z,3.35
2023-11-04T20:34:48.354Z,3.53
2023-11-04T20:37:35.571Z,3.40
2023-11-04T20:40:22.934Z,4.07
2023-11-04T20:43:10.229Z,2.92
2023-11-04T20:45:57.627Z,3.40
2023-11-04T20:48:44.885Z,3.90
2023-11-04T20:51:32.147Z,3.35
2023-11-04T20:54:21.324Z,3.40
2023-11-04T20:57:08.706Z,2.97
2023-11-04T20:59:56.751Z,3.72
2023-11-04T21:02:47.055Z,5.00
2023-11-04T21:05:34.270Z,4.18
2023-11-04T21:08:21.488Z,3.95
2023-11-04T21:11:08.808Z,3.40
2023-11-04T21:13:56.133Z,3.63
2023-11-04T21:16:43.367Z,3.38
2023-11-04T21:19:30.624Z,3.25
2023-11-04T21:22:17.954Z,3.17
2023-11-04T21:25:09.904Z,3.17
2023-11-04T21:27:57.755Z,3.67
2023-11-04T21:30:44.954Z,3.45
2023-11-04T21:33:33.016Z,4.10
2023-11-04T21:36:20.336Z,3.83
2023-11-04T21:39:08.201Z,3.28
2023-11-04T21:41:57.620Z,3.35
2023-11-04T21:44:45.384Z,3.15
2023-11-04T21:47:32.646Z,3.53
2023-11-04T21:50:19.871Z,3.20
2023-11-04T21:53:07.084Z,3.67
2023-11-04T21:55:54.342Z,3.40
2023-11-04T21:58:41.610Z,4.10
2023-11-04T22:01:28.844Z,3.50
2023-11-04T22:04:16.453Z,3.45
2023-11-04T22:07:04.191Z,3.25
2023-11-04T22:09:51.907Z,3.28
2023-11-04T22:12:39.125Z,2.92
2023-11-04T22:15:26.309Z,3.92
2023-11-04T22:18:13.671Z,3.40
2023-11-04T22:21:01.633Z,3.20
2023-11-04T22:23:48.903Z,2.58
2023-11-04T22:26:39.724Z,3.08
2023-11-04T22:29:26.929Z,2.67
2023-11-04T22:32:14.164Z,7.07
2023-11-04T22:35:01.358Z,6.00
2023-11-04T22:37:48.555Z,4.07
2023-11-04T22:40:35.834Z,3.33
2023-11-04T22:43:23.111Z,3.58
2023-11-04T22:46:10.383Z,3.30
2023-11-04T22:49:01.270Z,2.80
2023-11-04T22:51:48.542Z,3.17
2023-11-04T22:54:35.780Z,2.75
2023-11-04T22:57:22.933Z,3.20
2023-11-04T23:00:19.807Z,3.35
2023-11-04T23:03:07.935Z,2.92
2023-11-04T23:05:55.349Z,3.50
2023-11-04T23:08:42.664Z,3.40
2023-11-04T23:11:32.180Z,2.90
2023-11-04T23:14:19.567Z,3.60
2023-11-04T23:17:06.808Z,2.85
2023-11-04T23:19:54.008Z,3.05
2023-11-04T23:22:43.810Z,3.05
2023-11-04T23:25:31.069Z,5.88
2023-11-04T23:28:18.423Z,4.00
2023-11-04T23:31:05.673Z,4.00
2023-11-04T23:33:53.182Z,3.47
2023-11-04T23:36:42.094Z,2.63
2023-11-04T23:39:29.252Z,2.83
2023-11-04T23:42:16.774Z,2.92
2023-11-04T23:45:05.102Z,3.53
2023-11-04T23:47:52.695Z,3.30
2023-11-04T23:50:41.385Z,2.75
2023-11-04T23:53:28.619Z,2.63
2023-11-04T23:56:15.842Z,2.28
2023-11-04T23:59:03.577Z,2.90
